sensor_id;sensor_type;location;lat;lon;timestamp;P1;durP1;ratioP1;P2;durP2;ratioP2
6939;SDS011;3509;48.510;9.076;2022-07-12T00:01:09;16.25;;;11.32;;
6939;SDS011;3509;48.510;9.076;2022-07-12T00:03:35;13.27;;;11.10;;
6939;SDS011;3509;48.510;9.076;2022-07-12T00:06:01;12.13;;;10.82;;
6939;SDS011;3509;48.510;9.076;2022-07-12T00:08:28;14.32;;;11.95;;
6939;SDS011;3509;48.510;9.076;2022-07-12T00:10:54;12.93;;;11.65;;
6939;SDS011;3509;48.510;9.076;2022-07-12T00:13:20;15.43;;;11.88;;
6939;SDS011;3509;48.510;9.076;2022-07-12T00:15:45;13.25;;;11.85;;
6939;SDS011;3509;48.510;9.076;2022-07-12T00:18:11;12.73;;;11.07;;
6939;SDS011;3509;48.510;9.076;2022-07-12T00:20:37;15.80;;;11.98;;
6939;SDS011;3509;48.510;9.076;2022-07-12T00:23:02;15.00;;;11.73;;
6939;SDS011;3509;48.510;9.076;2022-07-12T00:25:28;15.50;;;11.45;;
6939;SDS011;3509;48.510;9.076;2022-07-12T00:27:54;14.98;;;11.73;;
6939;SDS011;3509;48.510;9.076;2022-07-12T00:30:21;16.63;;;11.93;;
6939;SDS011;3509;48.510;9.076;2022-07-12T00:32:47;16.10;;;12.88;;
6939;SDS011;3509;48.510;9.076;2022-07-12T00:35:13;17.17;;;12.65;;
6939;SDS011;3509;48.510;9.076;2022-07-12T00:37:40;16.48;;;13.02;;
6939;SDS011;3509;48.510;9.076;2022-07-12T00:40:06;15.43;;;13.15;;
6939;SDS011;3509;48.510;9.076;2022-07-12T00:42:38;15.98;;;12.63;;
6939;SDS011;3509;48.510;9.076;2022-07-12T00:45:04;17.13;;;13.20;;
6939;SDS011;3509;48.510;9.076;2022-07-12T00:47:38;16.92;;;13.98;;
6939;SDS011;3509;48.510;9.076;2022-07-12T00:50:14;17.85;;;12.98;;
6939;SDS011;3509;48.510;9.076;2022-07-12T00:52:45;16.45;;;13.23;;
6939;SDS011;3509;48.510;9.076;2022-07-12T00:55:12;18.13;;;13.65;;
6939;SDS011;3509;48.510;9.076;2022-07-12T00:57:39;15.77;;;13.45;;
6939;SDS011;3509;48.510;9.076;2022-07-12T01:00:07;17.60;;;13.13;;
6939;SDS011;3509;48.510;9.076;2022-07-12T01:02:36;19.92;;;13.88;;
6939;SDS011;3509;48.510;9.076;2022-07-12T01:05:03;17.52;;;13.77;;
6939;SDS011;3509;48.510;9.076;2022-07-12T01:07:29;18.23;;;14.18;;
6939;SDS011;3509;48.510;9.076;2022-07-12T01:09:55;20.17;;;14.80;;
6939;SDS011;3509;48.510;9.076;2022-07-12T01:12:22;19.13;;;14.52;;
6939;SDS011;3509;48.510;9.076;2022-07-12T01:14:49;20.02;;;14.00;;
6939;SDS011;3509;48.510;9.076;2022-07-12T01:17:15;18.63;;;13.95;;
6939;SDS011;3509;48.510;9.076;2022-07-12T01:19:46;20.80;;;14.15;;
6939;SDS011;3509;48.510;9.076;2022-07-12T01:22:12;16.27;;;13.43;;
6939;SDS011;3509;48.510;9.076;2022-07-12T01:24:41;19.52;;;14.63;;
6939;SDS011;3509;48.510;9.076;2022-07-12T01:27:07;20.67;;;15.05;;
6939;SDS011;3509;48.510;9.076;2022-07-12T01:29:34;19.40;;;15.15;;
6939;SDS011;3509;48.510;9.076;2022-07-12T01:32:00;19.92;;;14.85;;
6939;SDS011;3509;48.510;9.076;2022-07-12T01:34:48;18.35;;;15.38;;
6939;SDS011;3509;48.510;9.076;2022-07-12T01:37:25;18.10;;;14.02;;
6939;SDS011;3509;48.510;9.076;2022-07-12T01:39:54;18.48;;;14.82;;
6939;SDS011;3509;48.510;9.076;2022-07-12T01:42:21;21.05;;;14.80;;
6939;SDS011;3509;48.510;9.076;2022-07-12T01:44:48;16.67;;;14.80;;
6939;SDS011;3509;48.510;9.076;2022-07-12T01:47:15;20.77;;;15.52;;
6939;SDS011;3509;48.510;9.076;2022-07-12T01:49:48;19.02;;;15.07;;
6939;SDS011;3509;48.510;9.076;2022-07-12T01:52:14;19.27;;;15.30;;
6939;SDS011;3509;48.510;9.076;2022-07-12T01:54:40;18.80;;;15.82;;
6939;SDS011;3509;48.510;9.076;2022-07-12T01:57:07;18.90;;;15.48;;
6939;SDS011;3509;48.510;9.076;2022-07-12T01:59:33;21.08;;;16.30;;
6939;SDS011;3509;48.510;9.076;2022-07-12T02:01:59;20.45;;;16.05;;
6939;SDS011;3509;48.510;9.076;2022-07-12T02:04:26;19.58;;;14.85;;
6939;SDS011;3509;48.510;9.076;2022-07-12T02:06:52;18.38;;;14.93;;
6939;SDS011;3509;48.510;9.076;2022-07-12T02:09:17;21.10;;;14.98;;
6939;SDS011;3509;48.510;9.076;2022-07-12T02:11:43;18.10;;;14.85;;
6939;SDS011;3509;48.510;9.076;2022-07-12T02:14:13;19.10;;;15.52;;
6939;SDS011;3509;48.510;9.076;2022-07-12T02:16:39;20.23;;;14.50;;
6939;SDS011;3509;48.510;9.076;2022-07-12T02:19:06;22.52;;;14.98;;
6939;SDS011;3509;48.510;9.076;2022-07-12T02:21:32;21.52;;;15.70;;
6939;SDS011;3509;48.510;9.076;2022-07-12T02:23:58;21.38;;;15.55;;
6939;SDS011;3509;48.510;9.076;2022-07-12T02:26:24;20.00;;;15.63;;
6939;SDS011;3509;48.510;9.076;2022-07-12T02:28:50;20.67;;;15.70;;
6939;SDS011;3509;48.510;9.076;2022-07-12T02:31:15;20.08;;;14.70;;
6939;SDS011;3509;48.510;9.076;2022-07-12T02:33:41;20.15;;;15.15;;
6939;SDS011;3509;48.510;9.076;2022-07-12T02:36:07;22.98;;;15.88;;
6939;SDS011;3509;48.510;9.076;2022-07-12T02:38:32;21.42;;;15.77;;
6939;SDS011;3509;48.510;9.076;2022-07-12T02:40:58;20.92;;;15.65;;
6939;SDS011;3509;48.510;9.076;2022-07-12T02:43:24;20.80;;;15.90;;
6939;SDS011;3509;48.510;9.076;2022-07-12T02:45:55;21.42;;;15.85;;
6939;SDS011;3509;48.510;9.076;2022-07-12T02:48:35;20.70;;;16.55;;
6939;SDS011;3509;48.510;9.076;2022-07-12T02:51:01;21.83;;;15.60;;
6939;SDS011;3509;48.510;9.076;2022-07-12T02:53:28;19.83;;;15.52;;
6939;SDS011;3509;48.510;9.076;2022-07-12T02:55:54;20.70;;;15.90;;
6939;SDS011;3509;48.510;9.076;2022-07-12T02:58:19;22.38;;;15.48;;
6939;SDS011;3509;48.510;9.076;2022-07-12T03:00:45;23.75;;;16.27;;
6939;SDS011;3509;48.510;9.076;2022-07-12T03:03:12;21.95;;;16.38;;
6939;SDS011;3509;48.510;9.076;2022-07-12T03:05:38;23.63;;;15.32;;
6939;SDS011;3509;48.510;9.076;2022-07-12T03:08:05;19.13;;;15.68;;
6939;SDS011;3509;48.510;9.076;2022-07-12T03:10:32;19.85;;;15.02;;
6939;SDS011;3509;48.510;9.076;2022-07-12T03:12:58;23.02;;;15.73;;
6939;SDS011;3509;48.510;9.076;2022-07-12T03:15:23;17.60;;;14.77;;
6939;SDS011;3509;48.510;9.076;2022-07-12T03:17:49;18.50;;;14.30;;
6939;SDS011;3509;48.510;9.076;2022-07-12T03:20:15;21.13;;;16.10;;
6939;SDS011;3509;48.510;9.076;2022-07-12T03:22:41;21.17;;;15.60;;
6939;SDS011;3509;48.510;9.076;2022-07-12T03:25:07;17.92;;;12.52;;
6939;SDS011;3509;48.510;9.076;2022-07-12T03:27:33;20.15;;;15.73;;
6939;SDS011;3509;48.510;9.076;2022-07-12T03:29:59;22.95;;;16.40;;
6939;SDS011;3509;48.510;9.076;2022-07-12T03:32:25;21.45;;;15.77;;
6939;SDS011;3509;48.510;9.076;2022-07-12T03:34:51;19.42;;;14.82;;
6939;SDS011;3509;48.510;9.076;2022-07-12T03:37:16;21.98;;;15.77;;
6939;SDS011;3509;48.510;9.076;2022-07-12T03:39:42;21.30;;;16.02;;
6939;SDS011;3509;48.510;9.076;2022-07-12T03:42:08;16.98;;;14.57;;
6939;SDS011;3509;48.510;9.076;2022-07-12T03:44:33;20.67;;;15.23;;
6939;SDS011;3509;48.510;9.076;2022-07-12T03:46:59;21.45;;;15.80;;
6939;SDS011;3509;48.510;9.076;2022-07-12T03:49:25;19.42;;;15.20;;
6939;SDS011;3509;48.510;9.076;2022-07-12T03:51:51;23.98;;;15.63;;
6939;SDS011;3509;48.510;9.076;2022-07-12T03:54:16;19.73;;;15.18;;
6939;SDS011;3509;48.510;9.076;2022-07-12T03:56:42;18.63;;;14.85;;
6939;SDS011;3509;48.510;9.076;2022-07-12T03:59:26;18.92;;;14.35;;
6939;SDS011;3509;48.510;9.076;2022-07-12T04:01:52;20.25;;;14.43;;
6939;SDS011;3509;48.510;9.076;2022-07-12T04:04:18;19.08;;;13.80;;
6939;SDS011;3509;48.510;9.076;2022-07-12T04:06:43;19.65;;;14.98;;
6939;SDS011;3509;48.510;9.076;2022-07-12T04:09:09;16.15;;;14.20;;
6939;SDS011;3509;48.510;9.076;2022-07-12T04:11:35;17.35;;;14.05;;
6939;SDS011;3509;48.510;9.076;2022-07-12T04:14:00;16.05;;;14.02;;
6939;SDS011;3509;48.510;9.076;2022-07-12T04:16:26;15.90;;;13.25;;
6939;SDS011;3509;48.510;9.076;2022-07-12T04:18:52;16.75;;;14.93;;
6939;SDS011;3509;48.510;9.076;2022-07-12T04:21:19;16.80;;;13.57;;
6939;SDS011;3509;48.510;9.076;2022-07-12T04:23:44;15.73;;;13.98;;
6939;SDS011;3509;48.510;9.076;2022-07-12T04:26:10;16.35;;;12.90;;
6939;SDS011;3509;48.510;9.076;2022-07-12T04:28:35;14.20;;;12.30;;
6939;SDS011;3509;48.510;9.076;2022-07-12T04:31:01;13.70;;;12.25;;
6939;SDS011;3509;48.510;9.076;2022-07-12T04:33:27;14.25;;;11.52;;
6939;SDS011;3509;48.510;9.076;2022-07-12T04:35:53;12.98;;;11.57;;
6939;SDS011;3509;48.510;9.076;2022-07-12T04:38:19;12.43;;;11.13;;
6939;SDS011;3509;48.510;9.076;2022-07-12T04:40:45;14.23;;;11.63;;
6939;SDS011;3509;48.510;9.076;2022-07-12T04:43:11;11.73;;;10.60;;
6939;SDS011;3509;48.510;9.076;2022-07-12T04:45:37;12.65;;;9.63;;
6939;SDS011;3509;48.510;9.076;2022-07-12T04:48:03;11.98;;;10.27;;
6939;SDS011;3509;48.510;9.076;2022-07-12T04:50:29;10.90;;;9.70;;
6939;SDS011;3509;48.510;9.076;2022-07-12T04:52:54;9.45;;;8.57;;
6939;SDS011;3509;48.510;9.076;2022-07-12T04:55:20;11.38;;;8.85;;
6939;SDS011;3509;48.510;9.076;2022-07-12T04:57:45;9.45;;;8.55;;
6939;SDS011;3509;48.510;9.076;2022-07-12T05:00:11;8.95;;;8.10;;
6939;SDS011;3509;48.510;9.076;2022-07-12T05:02:38;10.05;;;8.80;;
6939;SDS011;3509;48.510;9.076;2022-07-12T05:05:04;9.10;;;8.05;;
6939;SDS011;3509;48.510;9.076;2022-07-12T05:07:30;10.23;;;7.40;;
6939;SDS011;3509;48.510;9.076;2022-07-12T05:09:56;8.77;;;7.40;;
6939;SDS011;3509;48.510;9.076;2022-07-12T05:12:21;9.10;;;8.05;;
6939;SDS011;3509;48.510;9.076;2022-07-12T05:14:47;7.80;;;7.07;;
6939;SDS011;3509;48.510;9.076;2022-07-12T05:17:13;9.13;;;7.35;;
6939;SDS011;3509;48.510;9.076;2022-07-12T05:19:38;9.32;;;7.10;;
6939;SDS011;3509;48.510;9.076;2022-07-12T05:22:04;9.02;;;7.00;;
6939;SDS011;3509;48.510;9.076;2022-07-12T05:24:30;7.03;;;5.80;;
6939;SDS011;3509;48.510;9.076;2022-07-12T05:26:56;6.75;;;5.50;;
6939;SDS011;3509;48.510;9.076;2022-07-12T05:29:21;7.10;;;4.97;;
6939;SDS011;3509;48.510;9.076;2022-07-12T05:31:47;5.15;;;4.13;;
6939;SDS011;3509;48.510;9.076;2022-07-12T05:34:13;5.53;;;4.25;;
6939;SDS011;3509;48.510;9.076;2022-07-12T05:36:39;4.50;;;4.10;;
6939;SDS011;3509;48.510;9.076;2022-07-12T05:39:05;4.38;;;3.97;;
6939;SDS011;3509;48.510;9.076;2022-07-12T05:41:30;6.80;;;4.25;;
6939;SDS011;3509;48.510;9.076;2022-07-12T05:43:57;5.85;;;4.22;;
6939;SDS011;3509;48.510;9.076;2022-07-12T05:46:23;4.28;;;3.88;;
6939;SDS011;3509;48.510;9.076;2022-07-12T05:48:49;4.40;;;4.00;;
6939;SDS011;3509;48.510;9.076;2022-07-12T05:51:15;7.95;;;3.70;;
6939;SDS011;3509;48.510;9.076;2022-07-12T05:53:59;4.63;;;3.90;;
6939;SDS011;3509;48.510;9.076;2022-07-12T05:56:24;5.50;;;4.05;;
6939;SDS011;3509;48.510;9.076;2022-07-12T05:58:50;5.38;;;4.13;;
6939;SDS011;3509;48.510;9.076;2022-07-12T06:01:16;4.20;;;3.90;;
6939;SDS011;3509;48.510;9.076;2022-07-12T06:03:42;4.18;;;3.75;;
6939;SDS011;3509;48.510;9.076;2022-07-12T06:06:08;7.50;;;3.90;;
6939;SDS011;3509;48.510;9.076;2022-07-12T06:08:34;5.20;;;3.78;;
6939;SDS011;3509;48.510;9.076;2022-07-12T06:11:00;5.75;;;4.18;;
6939;SDS011;3509;48.510;9.076;2022-07-12T06:13:25;6.28;;;3.92;;
6939;SDS011;3509;48.510;9.076;2022-07-12T06:15:51;4.47;;;4.00;;
6939;SDS011;3509;48.510;9.076;2022-07-12T06:18:17;5.97;;;3.90;;
6939;SDS011;3509;48.510;9.076;2022-07-12T06:20:42;6.55;;;4.32;;
6939;SDS011;3509;48.510;9.076;2022-07-12T06:23:08;8.13;;;4.20;;
6939;SDS011;3509;48.510;9.076;2022-07-12T06:25:34;4.93;;;3.88;;
6939;SDS011;3509;48.510;9.076;2022-07-12T06:28:00;5.97;;;3.83;;
6939;SDS011;3509;48.510;9.076;2022-07-12T06:30:26;4.40;;;4.00;;
6939;SDS011;3509;48.510;9.076;2022-07-12T06:32:52;4.40;;;4.00;;
6939;SDS011;3509;48.510;9.076;2022-07-12T06:35:18;5.22;;;4.07;;
6939;SDS011;3509;48.510;9.076;2022-07-12T06:37:44;6.07;;;4.35;;
6939;SDS011;3509;48.510;9.076;2022-07-12T06:40:10;4.75;;;4.30;;
6939;SDS011;3509;48.510;9.076;2022-07-12T06:42:36;6.55;;;4.07;;
6939;SDS011;3509;48.510;9.076;2022-07-12T06:45:02;5.53;;;4.15;;
6939;SDS011;3509;48.510;9.076;2022-07-12T06:47:28;7.70;;;4.15;;
6939;SDS011;3509;48.510;9.076;2022-07-12T06:49:54;4.97;;;4.20;;
6939;SDS011;3509;48.510;9.076;2022-07-12T06:52:20;6.68;;;3.88;;
6939;SDS011;3509;48.510;9.076;2022-07-12T06:54:45;7.68;;;3.58;;
6939;SDS011;3509;48.510;9.076;2022-07-12T06:57:11;5.75;;;3.67;;
6939;SDS011;3509;48.510;9.076;2022-07-12T06:59:37;7.43;;;3.88;;
6939;SDS011;3509;48.510;9.076;2022-07-12T07:02:03;5.10;;;4.03;;
6939;SDS011;3509;48.510;9.076;2022-07-12T07:04:29;5.68;;;3.50;;
6939;SDS011;3509;48.510;9.076;2022-07-12T07:06:55;12.77;;;4.70;;
6939;SDS011;3509;48.510;9.076;2022-07-12T07:09:20;6.38;;;3.95;;
6939;SDS011;3509;48.510;9.076;2022-07-12T07:11:46;6.05;;;3.80;;
6939;SDS011;3509;48.510;9.076;2022-07-12T07:14:12;5.85;;;3.78;;
6939;SDS011;3509;48.510;9.076;2022-07-12T07:16:37;4.30;;;3.90;;
6939;SDS011;3509;48.510;9.076;2022-07-12T07:19:03;4.32;;;3.53;;
6939;SDS011;3509;48.510;9.076;2022-07-12T07:21:30;6.28;;;4.03;;
6939;SDS011;3509;48.510;9.076;2022-07-12T07:23:56;6.45;;;3.80;;
6939;SDS011;3509;48.510;9.076;2022-07-12T07:26:22;3.40;;;3.10;;
6939;SDS011;3509;48.510;9.076;2022-07-12T07:28:48;3.53;;;3.20;;
6939;SDS011;3509;48.510;9.076;2022-07-12T07:31:36;4.28;;;3.55;;
6939;SDS011;3509;48.510;9.076;2022-07-12T07:34:02;3.20;;;2.90;;
6939;SDS011;3509;48.510;9.076;2022-07-12T07:36:29;6.07;;;3.00;;
6939;SDS011;3509;48.510;9.076;2022-07-12T07:38:55;5.68;;;3.17;;
6939;SDS011;3509;48.510;9.076;2022-07-12T07:41:22;3.88;;;3.05;;
6939;SDS011;3509;48.510;9.076;2022-07-12T07:43:47;4.75;;;3.08;;
6939;SDS011;3509;48.510;9.076;2022-07-12T07:46:13;3.15;;;2.80;;
6939;SDS011;3509;48.510;9.076;2022-07-12T07:48:38;3.83;;;2.60;;
6939;SDS011;3509;48.510;9.076;2022-07-12T07:51:04;3.45;;;2.95;;
6939;SDS011;3509;48.510;9.076;2022-07-12T07:53:30;4.07;;;2.50;;
6939;SDS011;3509;48.510;9.076;2022-07-12T07:55:55;2.90;;;2.70;;
6939;SDS011;3509;48.510;9.076;2022-07-12T07:58:22;4.13;;;3.00;;
6939;SDS011;3509;48.510;9.076;2022-07-12T08:00:51;3.25;;;2.38;;
6939;SDS011;3509;48.510;9.076;2022-07-12T08:03:18;2.63;;;2.40;;
6939;SDS011;3509;48.510;9.076;2022-07-12T08:05:45;3.70;;;2.85;;
6939;SDS011;3509;48.510;9.076;2022-07-12T08:08:11;4.30;;;2.90;;
6939;SDS011;3509;48.510;9.076;2022-07-12T08:10:37;2.58;;;2.15;;
6939;SDS011;3509;48.510;9.076;2022-07-12T08:13:03;2.40;;;2.20;;
6939;SDS011;3509;48.510;9.076;2022-07-12T08:15:29;6.47;;;2.67;;
6939;SDS011;3509;48.510;9.076;2022-07-12T08:17:55;4.53;;;2.28;;
6939;SDS011;3509;48.510;9.076;2022-07-12T08:20:22;2.38;;;2.03;;
6939;SDS011;3509;48.510;9.076;2022-07-12T08:22:48;5.10;;;2.33;;
6939;SDS011;3509;48.510;9.076;2022-07-12T08:25:14;3.85;;;2.03;;
6939;SDS011;3509;48.510;9.076;2022-07-12T08:27:41;3.92;;;2.10;;
6939;SDS011;3509;48.510;9.076;2022-07-12T08:30:07;9.32;;;2.30;;
6939;SDS011;3509;48.510;9.076;2022-07-12T08:32:33;3.20;;;2.40;;
6939;SDS011;3509;48.510;9.076;2022-07-12T08:34:59;3.20;;;1.90;;
6939;SDS011;3509;48.510;9.076;2022-07-12T08:37:24;2.30;;;2.10;;
6939;SDS011;3509;48.510;9.076;2022-07-12T08:39:50;3.83;;;1.80;;
6939;SDS011;3509;48.510;9.076;2022-07-12T08:42:17;1.98;;;1.88;;
6939;SDS011;3509;48.510;9.076;2022-07-12T08:44:55;2.33;;;1.83;;
6939;SDS011;3509;48.510;9.076;2022-07-12T08:47:21;4.28;;;2.65;;
6939;SDS011;3509;48.510;9.076;2022-07-12T08:52:38;4.43;;;2.33;;
6939;SDS011;3509;48.510;9.076;2022-07-12T08:57:42;2.92;;;2.22;;
6939;SDS011;3509;48.510;9.076;2022-07-12T09:00:08;2.28;;;1.90;;
6939;SDS011;3509;48.510;9.076;2022-07-12T09:02:43;2.13;;;1.92;;
6939;SDS011;3509;48.510;9.076;2022-07-12T09:05:09;3.45;;;1.90;;
6939;SDS011;3509;48.510;9.076;2022-07-12T09:07:35;2.30;;;1.63;;
6939;SDS011;3509;48.510;9.076;2022-07-12T09:10:04;1.92;;;1.80;;
6939;SDS011;3509;48.510;9.076;2022-07-12T09:12:32;5.00;;;1.80;;
6939;SDS011;3509;48.510;9.076;2022-07-12T09:15:12;2.08;;;1.88;;
6939;SDS011;3509;48.510;9.076;2022-07-12T09:17:38;4.20;;;1.90;;
6939;SDS011;3509;48.510;9.076;2022-07-12T09:20:04;2.05;;;1.88;;
6939;SDS011;3509;48.510;9.076;2022-07-12T09:22:33;2.08;;;1.98;;
6939;SDS011;3509;48.510;9.076;2022-07-12T09:25:07;3.20;;;1.95;;
6939;SDS011;3509;48.510;9.076;2022-07-12T09:27:34;5.35;;;1.80;;
6939;SDS011;3509;48.510;9.076;2022-07-12T09:30:00;2.42;;;1.73;;
6939;SDS011;3509;48.510;9.076;2022-07-12T09:32:25;2.00;;;1.80;;
6939;SDS011;3509;48.510;9.076;2022-07-12T09:35:09;2.95;;;2.00;;
6939;SDS011;3509;48.510;9.076;2022-07-12T09:37:55;2.35;;;1.80;;
6939;SDS011;3509;48.510;9.076;2022-07-12T09:40:32;3.45;;;1.92;;
6939;SDS011;3509;48.510;9.076;2022-07-12T09:42:57;1.83;;;1.70;;
6939;SDS011;3509;48.510;9.076;2022-07-12T09:45:23;1.95;;;1.80;;
6939;SDS011;3509;48.510;9.076;2022-07-12T09:47:49;1.88;;;1.52;;
6939;SDS011;3509;48.510;9.076;2022-07-12T09:50:16;1.77;;;1.55;;
6939;SDS011;3509;48.510;9.076;2022-07-12T09:52:41;2.53;;;1.80;;
6939;SDS011;3509;48.510;9.076;2022-07-12T09:55:13;1.50;;;1.20;;
6939;SDS011;3509;48.510;9.076;2022-07-12T09:57:43;1.83;;;1.42;;
6939;SDS011;3509;48.510;9.076;2022-07-12T10:00:11;1.50;;;1.38;;
6939;SDS011;3509;48.510;9.076;2022-07-12T10:02:37;2.25;;;1.48;;
6939;SDS011;3509;48.510;9.076;2022-07-12T10:05:04;3.17;;;1.60;;
6939;SDS011;3509;48.510;9.076;2022-07-12T10:07:33;2.15;;;1.35;;
6939;SDS011;3509;48.510;9.076;2022-07-12T10:10:01;1.38;;;1.30;;
6939;SDS011;3509;48.510;9.076;2022-07-12T10:12:27;1.40;;;1.30;;
6939;SDS011;3509;48.510;9.076;2022-07-12T10:14:55;2.35;;;1.60;;
6939;SDS011;3509;48.510;9.076;2022-07-12T10:17:25;1.42;;;1.33;;
6939;SDS011;3509;48.510;9.076;2022-07-12T10:22:40;1.98;;;1.30;;
6939;SDS011;3509;48.510;9.076;2022-07-12T10:25:20;3.10;;;1.70;;
6939;SDS011;3509;48.510;9.076;2022-07-12T10:27:58;1.75;;;1.50;;
6939;SDS011;3509;48.510;9.076;2022-07-12T10:30:24;1.75;;;1.35;;
6939;SDS011;3509;48.510;9.076;2022-07-12T10:32:53;4.68;;;1.55;;
6939;SDS011;3509;48.510;9.076;2022-07-12T10:35:23;2.53;;;1.40;;
6939;SDS011;3509;48.510;9.076;2022-07-12T10:40:42;1.67;;;1.50;;
6939;SDS011;3509;48.510;9.076;2022-07-12T10:43:13;7.40;;;1.40;;
6939;SDS011;3509;48.510;9.076;2022-07-12T10:45:40;2.25;;;1.52;;
6939;SDS011;3509;48.510;9.076;2022-07-12T10:48:08;1.45;;;1.30;;
6939;SDS011;3509;48.510;9.076;2022-07-12T10:53:33;1.40;;;1.30;;
6939;SDS011;3509;48.510;9.076;2022-07-12T10:58:44;1.55;;;1.42;;
6939;SDS011;3509;48.510;9.076;2022-07-12T11:03:47;2.05;;;1.40;;
6939;SDS011;3509;48.510;9.076;2022-07-12T11:06:20;1.77;;;1.60;;
6939;SDS011;3509;48.510;9.076;2022-07-12T11:14:08;2.67;;;1.83;;
6939;SDS011;3509;48.510;9.076;2022-07-12T11:16:42;2.00;;;1.60;;
6939;SDS011;3509;48.510;9.076;2022-07-12T11:19:09;1.73;;;1.40;;
6939;SDS011;3509;48.510;9.076;2022-07-12T11:21:35;2.25;;;1.42;;
6939;SDS011;3509;48.510;9.076;2022-07-12T11:24:00;3.15;;;1.50;;
6939;SDS011;3509;48.510;9.076;2022-07-12T11:26:26;3.90;;;1.70;;
6939;SDS011;3509;48.510;9.076;2022-07-12T11:28:54;3.00;;;1.50;;
6939;SDS011;3509;48.510;9.076;2022-07-12T11:31:22;4.32;;;1.50;;
6939;SDS011;3509;48.510;9.076;2022-07-12T11:33:50;3.30;;;1.58;;
6939;SDS011;3509;48.510;9.076;2022-07-12T11:36:18;2.88;;;1.50;;
6939;SDS011;3509;48.510;9.076;2022-07-12T11:38:45;2.85;;;1.40;;
6939;SDS011;3509;48.510;9.076;2022-07-12T11:41:12;1.52;;;1.40;;
6939;SDS011;3509;48.510;9.076;2022-07-12T11:43:39;1.52;;;1.30;;
6939;SDS011;3509;48.510;9.076;2022-07-12T11:46:05;2.67;;;1.35;;
6939;SDS011;3509;48.510;9.076;2022-07-12T11:48:31;2.00;;;1.30;;
6939;SDS011;3509;48.510;9.076;2022-07-12T11:51:00;3.13;;;1.40;;
6939;SDS011;3509;48.510;9.076;2022-07-12T11:53:29;3.05;;;1.50;;
6939;SDS011;3509;48.510;9.076;2022-07-12T11:55:56;1.50;;;1.40;;
6939;SDS011;3509;48.510;9.076;2022-07-12T11:58:23;2.35;;;1.60;;
6939;SDS011;3509;48.510;9.076;2022-07-12T12:00:50;1.92;;;1.52;;
6939;SDS011;3509;48.510;9.076;2022-07-12T12:03:17;2.38;;;1.52;;
6939;SDS011;3509;48.510;9.076;2022-07-12T12:05:46;2.00;;;1.30;;
6939;SDS011;3509;48.510;9.076;2022-07-12T12:08:12;2.72;;;1.58;;
6939;SDS011;3509;48.510;9.076;2022-07-12T12:10:40;1.58;;;1.48;;
6939;SDS011;3509;48.510;9.076;2022-07-12T12:13:16;1.50;;;1.40;;
6939;SDS011;3509;48.510;9.076;2022-07-12T12:15:49;2.50;;;1.40;;
6939;SDS011;3509;48.510;9.076;2022-07-12T12:18:16;2.63;;;1.48;;
6939;SDS011;3509;48.510;9.076;2022-07-12T12:20:56;2.15;;;1.30;;
6939;SDS011;3509;48.510;9.076;2022-07-12T12:23:22;2.85;;;1.50;;
6939;SDS011;3509;48.510;9.076;2022-07-12T12:25:49;3.63;;;1.33;;
6939;SDS011;3509;48.510;9.076;2022-07-12T12:28:14;1.40;;;1.30;;
6939;SDS011;3509;48.510;9.076;2022-07-12T12:33:32;1.70;;;1.60;;
6939;SDS011;3509;48.510;9.076;2022-07-12T12:38:49;3.60;;;1.48;;
6939;SDS011;3509;48.510;9.076;2022-07-12T12:41:18;2.47;;;1.65;;
6939;SDS011;3509;48.510;9.076;2022-07-12T12:43:47;5.50;;;1.42;;
6939;SDS011;3509;48.510;9.076;2022-07-12T12:46:20;1.60;;;1.50;;
6939;SDS011;3509;48.510;9.076;2022-07-12T12:48:47;1.98;;;1.38;;
6939;SDS011;3509;48.510;9.076;2022-07-12T12:51:12;2.72;;;1.17;;
6939;SDS011;3509;48.510;9.076;2022-07-12T12:53:39;2.83;;;1.33;;
6939;SDS011;3509;48.510;9.076;2022-07-12T12:56:07;1.58;;;1.48;;
6939;SDS011;3509;48.510;9.076;2022-07-12T12:58:35;1.27;;;1.10;;
6939;SDS011;3509;48.510;9.076;2022-07-12T13:01:02;1.77;;;1.10;;
6939;SDS011;3509;48.510;9.076;2022-07-12T13:03:29;1.27;;;1.13;;
6939;SDS011;3509;48.510;9.076;2022-07-12T13:05:55;2.45;;;1.40;;
6939;SDS011;3509;48.510;9.076;2022-07-12T13:08:20;1.10;;;1.10;;
6939;SDS011;3509;48.510;9.076;2022-07-12T13:10:47;2.95;;;1.15;;
6939;SDS011;3509;48.510;9.076;2022-07-12T13:13:33;1.33;;;1.23;;
6939;SDS011;3509;48.510;9.076;2022-07-12T13:15:59;2.15;;;1.10;;
6939;SDS011;3509;48.510;9.076;2022-07-12T13:18:24;1.25;;;1.15;;
6939;SDS011;3509;48.510;9.076;2022-07-12T13:20:50;1.30;;;1.20;;
6939;SDS011;3509;48.510;9.076;2022-07-12T13:23:15;1.05;;;1.02;;
6939;SDS011;3509;48.510;9.076;2022-07-12T13:25:41;3.85;;;1.10;;
6939;SDS011;3509;48.510;9.076;2022-07-12T13:28:07;2.72;;;1.35;;
6939;SDS011;3509;48.510;9.076;2022-07-12T13:30:32;4.03;;;1.23;;
6939;SDS011;3509;48.510;9.076;2022-07-12T13:32:58;1.55;;;1.20;;
6939;SDS011;3509;48.510;9.076;2022-07-12T13:35:24;3.03;;;1.20;;
6939;SDS011;3509;48.510;9.076;2022-07-12T13:37:54;1.33;;;1.20;;
6939;SDS011;3509;48.510;9.076;2022-07-12T13:40:19;2.65;;;1.10;;
6939;SDS011;3509;48.510;9.076;2022-07-12T13:42:47;2.13;;;1.10;;
6939;SDS011;3509;48.510;9.076;2022-07-12T13:45:16;1.30;;;1.20;;
6939;SDS011;3509;48.510;9.076;2022-07-12T13:47:43;1.85;;;0.80;;
6939;SDS011;3509;48.510;9.076;2022-07-12T13:50:12;2.25;;;1.20;;
6939;SDS011;3509;48.510;9.076;2022-07-12T13:52:40;5.38;;;1.27;;
6939;SDS011;3509;48.510;9.076;2022-07-12T13:55:09;1.23;;;1.13;;
6939;SDS011;3509;48.510;9.076;2022-07-12T13:57:36;1.00;;;0.90;;
6939;SDS011;3509;48.510;9.076;2022-07-12T14:00:08;3.35;;;1.17;;
6939;SDS011;3509;48.510;9.076;2022-07-12T14:02:36;1.80;;;1.20;;
6939;SDS011;3509;48.510;9.076;2022-07-12T14:05:07;1.65;;;1.20;;
6939;SDS011;3509;48.510;9.076;2022-07-12T14:07:35;3.80;;;1.05;;
6939;SDS011;3509;48.510;9.076;2022-07-12T14:10:02;1.17;;;1.08;;
6939;SDS011;3509;48.510;9.076;2022-07-12T14:12:29;1.52;;;1.17;;
6939;SDS011;3509;48.510;9.076;2022-07-12T14:14:55;4.60;;;1.17;;
6939;SDS011;3509;48.510;9.076;2022-07-12T14:17:36;2.25;;;1.10;;
6939;SDS011;3509;48.510;9.076;2022-07-12T14:20:03;0.90;;;0.80;;
6939;SDS011;3509;48.510;9.076;2022-07-12T14:22:29;3.38;;;1.13;;
6939;SDS011;3509;48.510;9.076;2022-07-12T14:24:56;4.97;;;1.10;;
6939;SDS011;3509;48.510;9.076;2022-07-12T14:27:21;1.00;;;1.00;;
6939;SDS011;3509;48.510;9.076;2022-07-12T14:29:48;2.03;;;1.00;;
6939;SDS011;3509;48.510;9.076;2022-07-12T14:32:13;2.80;;;1.08;;
6939;SDS011;3509;48.510;9.076;2022-07-12T14:34:39;1.02;;;0.90;;
6939;SDS011;3509;48.510;9.076;2022-07-12T14:37:05;1.55;;;1.08;;
6939;SDS011;3509;48.510;9.076;2022-07-12T14:39:30;1.27;;;0.80;;
6939;SDS011;3509;48.510;9.076;2022-07-12T14:41:56;2.88;;;1.10;;
6939;SDS011;3509;48.510;9.076;2022-07-12T14:44:22;0.85;;;0.85;;
6939;SDS011;3509;48.510;9.076;2022-07-12T14:46:48;2.50;;;0.80;;
6939;SDS011;3509;48.510;9.076;2022-07-12T14:49:14;1.33;;;1.00;;
6939;SDS011;3509;48.510;9.076;2022-07-12T14:51:39;1.63;;;1.10;;
6939;SDS011;3509;48.510;9.076;2022-07-12T14:54:05;1.25;;;1.15;;
6939;SDS011;3509;48.510;9.076;2022-07-12T14:56:31;1.60;;;1.00;;
6939;SDS011;3509;48.510;9.076;2022-07-12T14:58:56;2.72;;;1.10;;
6939;SDS011;3509;48.510;9.076;2022-07-12T15:01:22;2.88;;;1.10;;
6939;SDS011;3509;48.510;9.076;2022-07-12T15:03:48;3.25;;;1.00;;
6939;SDS011;3509;48.510;9.076;2022-07-12T15:06:13;5.07;;;1.13;;
6939;SDS011;3509;48.510;9.076;2022-07-12T15:08:39;3.42;;;1.00;;
6939;SDS011;3509;48.510;9.076;2022-07-12T15:11:04;3.47;;;0.93;;
6939;SDS011;3509;48.510;9.076;2022-07-12T15:13:30;2.67;;;1.00;;
6939;SDS011;3509;48.510;9.076;2022-07-12T15:15:56;2.15;;;1.08;;
6939;SDS011;3509;48.510;9.076;2022-07-12T15:18:22;1.00;;;0.88;;
6939;SDS011;3509;48.510;9.076;2022-07-12T15:20:49;2.40;;;1.17;;
6939;SDS011;3509;48.510;9.076;2022-07-12T15:23:15;0.82;;;0.82;;
6939;SDS011;3509;48.510;9.076;2022-07-12T15:25:40;2.33;;;0.90;;
6939;SDS011;3509;48.510;9.076;2022-07-12T15:28:06;0.90;;;0.90;;
6939;SDS011;3509;48.510;9.076;2022-07-12T15:30:32;1.98;;;1.10;;
6939;SDS011;3509;48.510;9.076;2022-07-12T15:32:59;2.28;;;1.08;;
6939;SDS011;3509;48.510;9.076;2022-07-12T15:35:24;2.00;;;1.10;;